Time;durP1;ratioP1;P1;durP2;ratioP2;P2;SDS_P1;SDS_P2;PMS_P1;PMS_P2;Temp;Humidity;BMP_temperature;BMP_pressure;BME280_temperature;BME280_humidity;BME280_pressure;Samples;Min_cycle;Max_cycle;Signal;HPM_P1;HPM_P2
2021/12/14 00:00:20;;;;;;;17.17;10.07;;;;;;;;;;5116974;28;20031;-68
2021/12/14 00:02:48;;;;;;;16.75;9.82;;;;;;;;;;5117461;28;20102;-68
2021/12/14 00:05:15;;;;;;;18.67;10.65;;;;;;;;;;5117282;27;20050;-69
2021/12/14 00:07:41;;;;;;;20.40;10.65;;;;;;;;;;5117014;28;20031;-69
2021/12/14 00:10:28;;;;;;;19.55;10.85;;;;;;;;;;5117041;28;20027;-69
2021/12/14 00:13:01;;;;;;;20.85;10.95;;;;;;;;;;5116064;28;20084;-68
2021/12/14 00:15:28;;;;;;;19.65;11.48;;;;;;;;;;5117151;28;20117;-69
2021/12/14 00:17:59;;;;;;;17.50;10.25;;;;;;;;;;5116840;28;20031;-69
2021/12/14 00:20:33;;;;;;;21.83;11.18;;;;;;;;;;5116393;28;20383;-68
2021/12/14 00:25:32;;;;;;;16.92;9.70;;;;;;;;;;5116692;28;20088;-69
2021/12/14 00:28:08;;;;;;;18.52;9.25;;;;;;;;;;5116636;28;20031;-67
2021/12/14 00:30:35;;;;;;;19.50;9.98;;;;;;;;;;5111911;28;20116;-68
2021/12/14 00:33:03;;;;;;;18.40;9.55;;;;;;;;;;5116885;28;20058;-69
2021/12/14 00:35:28;;;;;;;16.58;8.68;;;;;;;;;;5116842;28;20039;-69
2021/12/14 00:37:55;;;;;;;18.63;9.43;;;;;;;;;;5116531;28;20387;-69
2021/12/14 00:40:29;;;;;;;19.83;8.95;;;;;;;;;;5115981;28;20046;-68
2021/12/14 00:42:56;;;;;;;17.23;9.13;;;;;;;;;;5116473;28;20027;-68
2021/12/14 00:45:24;;;;;;;18.70;9.00;;;;;;;;;;5116317;28;20032;-68
2021/12/14 00:47:50;;;;;;;17.50;8.27;;;;;;;;;;5116347;28;20028;-69
2021/12/14 00:50:19;;;;;;;23.30;9.60;;;;;;;;;;5115966;28;20031;-68
2021/12/14 00:52:46;;;;;;;22.20;9.32;;;;;;;;;;5116147;28;20061;-68
2021/12/14 00:55:15;;;;;;;18.15;8.40;;;;;;;;;;5116101;28;20034;-68
2021/12/14 00:57:41;;;;;;;16.15;7.70;;;;;;;;;;5115976;28;20046;-68
2021/12/14 01:00:10;;;;;;;15.20;7.65;;;;;;;;;;5115792;28;20114;-69
2021/12/14 01:02:37;;;;;;;17.25;8.02;;;;;;;;;;5116075;28;20380;-69
2021/12/14 01:05:10;;;;;;;16.38;7.28;;;;;;;;;;5115615;28;20357;-68
2021/12/14 01:07:36;;;;;;;13.45;6.75;;;;;;;;;;5116263;28;20027;-68
2021/12/14 01:10:15;;;;;;;13.18;6.43;;;;;;;;;;5115576;28;20032;-68
2021/12/14 01:12:48;;;;;;;11.73;6.13;;;;;;;;;;5115765;28;20031;-69
2021/12/14 01:15:27;;;;;;;13.00;5.78;;;;;;;;;;5115932;28;20159;-69
2021/12/14 01:18:12;;;;;;;11.27;5.88;;;;;;;;;;5116156;28;20028;-69
2021/12/14 01:20:40;;;;;;;13.80;6.22;;;;;;;;;;5115097;28;20051;-69
2021/12/14 01:23:15;;;;;;;12.45;6.07;;;;;;;;;;5115910;28;20059;-69
2021/12/14 01:25:48;;;;;;;11.40;5.75;;;;;;;;;;5115501;28;20425;-69
2021/12/14 01:28:19;;;;;;;13.05;5.75;;;;;;;;;;5115471;28;20080;-68
2021/12/14 01:31:05;;;;;;;12.25;5.97;;;;;;;;;;5110535;28;20035;-68
2021/12/14 01:33:32;;;;;;;12.75;5.60;;;;;;;;;;5115742;28;20027;-69
2021/12/14 01:36:00;;;;;;;8.88;5.30;;;;;;;;;;5115426;28;20039;-69
2021/12/14 01:40:58;;;;;;;11.18;5.95;;;;;;;;;;5115095;28;20030;-68
2021/12/14 01:43:35;;;;;;;10.18;5.68;;;;;;;;;;5113434;28;20118;-69
2021/12/14 01:46:07;;;;;;;12.65;5.78;;;;;;;;;;5115117;28;20031;-69
2021/12/14 01:48:34;;;;;;;13.02;5.97;;;;;;;;;;5115303;28;20038;-69
2021/12/14 01:51:02;;;;;;;13.52;5.78;;;;;;;;;;5114894;28;20114;-69
2021/12/14 01:53:28;;;;;;;12.90;5.63;;;;;;;;;;5115037;28;20031;-68
2021/12/14 01:55:58;;;;;;;12.88;6.50;;;;;;;;;;5115104;28;20058;-69
2021/12/14 01:58:31;;;;;;;16.75;6.70;;;;;;;;;;5114796;28;20131;-69
2021/12/14 02:01:06;;;;;;;20.95;7.05;;;;;;;;;;5114919;28;20056;-68
2021/12/14 02:03:42;;;;;;;22.00;7.43;;;;;;;;;;5114886;28;20452;-69
2021/12/14 02:06:13;;;;;;;11.50;4.97;;;;;;;;;;5114774;28;20406;-68
2021/12/14 02:08:38;;;;;;;;;;;;;;;;;;5115139;28;20027;-69
2021/12/14 02:11:06;;;;;;;20.65;7.13;;;;;;;;;;5114534;28;19972;-68
2021/12/14 02:13:47;;;;;;;11.80;5.25;;;;;;;;;;5114715;28;20031;-68
2021/12/14 02:16:16;;;;;;;29.02;7.75;;;;;;;;;;5114557;27;20107;-70
2021/12/14 02:18:47;;;;;;;18.58;6.70;;;;;;;;;;5114620;28;20088;-69
2021/12/14 02:21:14;;;;;;;14.13;5.13;;;;;;;;;;5113963;28;20062;-68
2021/12/14 02:23:45;;;;;;;26.60;7.13;;;;;;;;;;5114725;28;20070;-69
2021/12/14 02:26:14;;;;;;;28.50;8.05;;;;;;;;;;5114683;28;20031;-69
2021/12/14 02:28:40;;;;;;;23.63;6.97;;;;;;;;;;5114399;28;20039;-68
2021/12/14 02:31:10;;;;;;;21.67;6.95;;;;;;;;;;5108708;28;20034;-69
2021/12/14 02:33:39;;;;;;;25.53;7.20;;;;;;;;;;5114275;28;20027;-68
2021/12/14 02:36:09;;;;;;;19.95;6.40;;;;;;;;;;5114210;28;20095;-68
2021/12/14 02:38:43;;;;;;;20.02;6.72;;;;;;;;;;5114219;28;20035;-69
2021/12/14 02:41:10;;;;;;;18.15;6.63;;;;;;;;;;5113812;28;20039;-69
2021/12/14 02:43:53;;;;;;;19.88;7.05;;;;;;;;;;5114065;28;20036;-69
2021/12/14 02:46:36;;;;;;;18.85;6.95;;;;;;;;;;5113066;28;20083;-69
2021/12/14 02:49:05;;;;;;;15.05;6.03;;;;;;;;;;5114305;28;20042;-69
2021/12/14 02:51:38;;;;;;;14.57;6.10;;;;;;;;;;5113816;28;20106;-69
2021/12/14 02:54:08;;;;;;;14.70;5.90;;;;;;;;;;5113196;28;20516;-68
2021/12/14 02:56:36;;;;;;;12.70;5.57;;;;;;;;;;5113984;28;20028;-69
2021/12/14 02:59:08;;;;;;;12.20;5.13;;;;;;;;;;5113954;28;20028;-69
2021/12/14 03:01:35;;;;;;;10.85;4.85;;;;;;;;;;5113694;28;20097;-69
2021/12/14 03:04:05;;;;;;;11.63;4.78;;;;;;;;;;5113847;28;20027;-67
2021/12/14 03:06:36;;;;;;;7.22;3.75;;;;;;;;;;5114012;28;20051;-69
2021/12/14 03:09:16;;;;;;;12.10;4.30;;;;;;;;;;5113958;28;20035;-69
2021/12/14 03:11:42;;;;;;;9.88;4.88;;;;;;;;;;5113623;28;20039;-69
2021/12/14 03:14:09;;;;;;;10.40;4.45;;;;;;;;;;5113690;28;20475;-69
2021/12/14 03:16:38;;;;;;;9.57;4.15;;;;;;;;;;5113891;28;20036;-68
2021/12/14 03:19:07;;;;;;;10.68;4.35;;;;;;;;;;5114024;28;20073;-69
2021/12/14 03:21:36;;;;;;;9.30;4.53;;;;;;;;;;5113349;28;20061;-69
2021/12/14 03:24:02;;;;;;;8.73;4.13;;;;;;;;;;5113669;28;20468;-68
2021/12/14 03:26:31;;;;;;;7.63;4.18;;;;;;;;;;5114005;28;20035;-68
2021/12/14 03:29:03;;;;;;;9.50;4.35;;;;;;;;;;5113678;28;20506;-69
2021/12/14 03:31:38;;;;;;;9.95;4.22;;;;;;;;;;5107325;28;20380;-69
2021/12/14 03:34:14;;;;;;;8.45;4.18;;;;;;;;;;5113852;28;20024;-68
2021/12/14 03:36:49;;;;;;;9.85;4.03;;;;;;;;;;5113760;28;20061;-69
2021/12/14 03:39:22;;;;;;;9.10;4.28;;;;;;;;;;5113521;28;20036;-68
2021/12/14 03:41:50;;;;;;;7.78;4.00;;;;;;;;;;5113552;28;20027;-69
2021/12/14 03:44:29;;;;;;;7.90;4.10;;;;;;;;;;5113251;28;20055;-69
2021/12/14 03:46:57;;;;;;;7.82;3.90;;;;;;;;;;5113508;28;20092;-69
2021/12/14 03:49:28;;;;;;;5.93;3.72;;;;;;;;;;5113614;28;20031;-69
2021/12/14 03:51:55;;;;;;;8.38;4.10;;;;;;;;;;5113214;28;20058;-69
2021/12/14 03:54:20;;;;;;;6.85;3.90;;;;;;;;;;5112342;28;20032;-69
2021/12/14 03:56:48;;;;;;;8.65;3.60;;;;;;;;;;5113566;28;20421;-68
2021/12/14 03:59:14;;;;;;;7.40;3.97;;;;;;;;;;5113241;28;20466;-68
2021/12/14 04:01:42;;;;;;;7.85;4.13;;;;;;;;;;5113177;28;20028;-69
2021/12/14 04:04:23;;;;;;;9.60;4.07;;;;;;;;;;5113403;28;20046;-68
2021/12/14 04:06:55;;;;;;;6.93;3.90;;;;;;;;;;5116348;28;20027;-68
2021/12/14 04:09:24;;;;;;;7.07;3.63;;;;;;;;;;5117048;28;20031;-69
2021/12/14 04:11:50;;;;;;;7.45;3.50;;;;;;;;;;5116879;27;20038;-68
2021/12/14 04:14:17;;;;;;;10.23;3.50;;;;;;;;;;5117141;28;20031;-68
2021/12/14 04:16:46;;;;;;;7.95;3.97;;;;;;;;;;5116963;28;20483;-69
2021/12/14 04:19:15;;;;;;;7.63;3.60;;;;;;;;;;5116750;28;20505;-69
2021/12/14 04:21:44;;;;;;;7.20;3.70;;;;;;;;;;5116370;27;20043;-69
2021/12/14 04:24:12;;;;;;;8.95;3.75;;;;;;;;;;5116631;28;20038;-69
2021/12/14 04:26:44;;;;;;;8.55;3.50;;;;;;;;;;5116782;28;20053;-69
2021/12/14 04:29:12;;;;;;;7.03;3.58;;;;;;;;;;5116710;28;20081;-69
2021/12/14 04:31:39;;;;;;;7.90;3.40;;;;;;;;;;5109831;28;20463;-68
2021/12/14 04:34:05;;;;;;;5.68;3.42;;;;;;;;;;5116650;28;20529;-69
2021/12/14 04:36:31;;;;;;;6.57;3.67;;;;;;;;;;5116476;28;20035;-69
2021/12/14 04:39:16;;;;;;;7.40;3.60;;;;;;;;;;5115614;28;20027;-69
2021/12/14 04:53:32;;;;;;;8.90;4.30;;;;;;;;;;5116557;28;20388;-68
2021/12/14 04:55:57;;;;;;;8.20;4.20;;;;;;;;;;5116341;28;20038;-68
2021/12/14 04:58:31;;;;;;;8.75;3.78;;;;;;;;;;5116094;28;20035;-69
2021/12/14 05:00:59;;;;;;;6.90;3.65;;;;;;;;;;5115855;28;20039;-68
2021/12/14 05:03:29;;;;;;;7.30;3.63;;;;;;;;;;5115017;28;20036;-68
2021/12/14 05:06:09;;;;;;;6.03;3.42;;;;;;;;;;5116227;27;20036;-68
2021/12/14 05:11:14;;;;;;;6.85;3.50;;;;;;;;;;5115671;28;20092;-69
2021/12/14 05:13:44;;;;;;;6.80;3.30;;;;;;;;;;5116109;28;20030;-68
2021/12/14 05:16:17;;;;;;;5.50;3.33;;;;;;;;;;5115753;28;20039;-68
2021/12/14 05:18:48;;;;;;;5.88;3.15;;;;;;;;;;5115254;28;20035;-69
2021/12/14 05:21:25;;;;;;;6.70;3.20;;;;;;;;;;5115115;28;20051;-69
2021/12/14 05:23:52;;;;;;;6.70;3.05;;;;;;;;;;5115450;28;20082;-69
2021/12/14 05:26:19;;;;;;;6.00;2.75;;;;;;;;;;5115611;28;20024;-69
2021/12/14 05:28:45;;;;;;;5.43;2.90;;;;;;;;;;5115720;28;20027;-68
2021/12/14 05:31:11;;;;;;;7.28;3.10;;;;;;;;;;5108270;28;20031;-69
2021/12/14 05:33:37;;;;;;;6.55;3.58;;;;;;;;;;5115493;28;20341;-69
2021/12/14 05:36:08;;;;;;;6.07;2.88;;;;;;;;;;5115543;28;20039;-68
2021/12/14 05:38:48;;;;;;;5.65;2.72;;;;;;;;;;5115188;28;20033;-69
2021/12/14 05:44:03;;;;;;;3.97;2.50;;;;;;;;;;5115338;28;20376;-68
2021/12/14 05:46:29;;;;;;;4.38;3.00;;;;;;;;;;5115216;28;20118;-68
2021/12/14 05:49:00;;;;;;;5.55;2.70;;;;;;;;;;5115156;28;20103;-69
2021/12/14 05:51:28;;;;;;;6.38;3.30;;;;;;;;;;5114740;28;20031;-68
2021/12/14 05:53:55;;;;;;;7.70;3.10;;;;;;;;;;5115072;28;20092;-69
2021/12/14 05:56:22;;;;;;;7.38;2.97;;;;;;;;;;5115056;28;20032;-68
2021/12/14 05:58:50;;;;;;;6.40;3.65;;;;;;;;;;5114910;28;20498;-68
2021/12/14 06:01:20;;;;;;;5.97;3.10;;;;;;;;;;5114637;27;20035;-68
2021/12/14 06:03:55;;;;;;;6.60;2.97;;;;;;;;;;5115025;28;20032;-68
2021/12/14 06:06:28;;;;;;;9.13;3.63;;;;;;;;;;5114802;28;20381;-69
2021/12/14 06:09:23;;;;;;;10.38;4.88;;;;;;;;;;5114813;28;20096;-68
2021/12/14 06:11:54;;;;;;;5.45;2.90;;;;;;;;;;5110533;28;20063;-69
2021/12/14 06:14:24;;;;;;;6.25;2.92;;;;;;;;;;5114689;28;20024;-68
2021/12/14 06:16:53;;;;;;;8.38;3.95;;;;;;;;;;5114741;28;20032;-68
2021/12/14 06:19:25;;;;;;;8.80;4.45;;;;;;;;;;5114561;28;20084;-69
2021/12/14 06:21:58;;;;;;;9.32;4.43;;;;;;;;;;5113985;28;20426;-68
2021/12/14 06:24:27;;;;;;;8.10;3.88;;;;;;;;;;5114340;28;20037;-69
2021/12/14 06:26:55;;;;;;;7.22;3.40;;;;;;;;;;5114706;28;20019;-68
2021/12/14 06:29:43;;;;;;;7.72;4.25;;;;;;;;;;5114090;28;20035;-69
2021/12/14 06:32:16;;;;;;;10.40;4.07;;;;;;;;;;5109061;28;20117;-69
2021/12/14 06:34:52;;;;;;;9.35;4.20;;;;;;;;;;5114251;28;20031;-69
2021/12/14 06:40:07;;;;;;;8.95;4.47;;;;;;;;;;5114250;28;20027;-69
2021/12/14 06:42:38;;;;;;;9.20;4.70;;;;;;;;;;5113679;28;20030;-68
2021/12/14 06:45:06;;;;;;;10.23;5.20;;;;;;;;;;5114255;28;20333;-69
2021/12/14 06:47:32;;;;;;;10.15;4.57;;;;;;;;;;5113862;28;20059;-68
2021/12/14 06:50:05;;;;;;;8.18;4.22;;;;;;;;;;5114228;28;20055;-68
2021/12/14 06:52:31;;;;;;;6.80;3.80;;;;;;;;;;5113747;28;20038;-68
2021/12/14 06:54:56;;;;;;;9.63;4.03;;;;;;;;;;5114052;28;20368;-69
2021/12/14 06:57:23;;;;;;;11.15;4.72;;;;;;;;;;5114176;28;20028;-68
2021/12/14 06:59:48;;;;;;;9.88;3.97;;;;;;;;;;5113998;28;20035;-69
2021/12/14 07:02:14;;;;;;;13.02;4.28;;;;;;;;;;5113633;28;20024;-69
2021/12/14 07:04:48;;;;;;;7.50;3.50;;;;;;;;;;5113803;28;20031;-69
2021/12/14 07:07:14;;;;;;;7.20;3.75;;;;;;;;;;5113826;28;20024;-69
2021/12/14 07:09:43;;;;;;;11.02;3.83;;;;;;;;;;5114057;28;20047;-71
2021/12/14 07:12:10;;;;;;;6.63;3.65;;;;;;;;;;5113671;28;20028;-69
2021/12/14 07:14:36;;;;;;;7.20;3.85;;;;;;;;;;5113688;28;20024;-69
2021/12/14 07:17:18;;;;;;;7.57;3.80;;;;;;;;;;5113796;28;20035;-69
2021/12/14 07:19:56;;;;;;;6.80;3.30;;;;;;;;;;5113551;28;20035;-68
2021/12/14 07:22:32;;;;;;;8.77;3.42;;;;;;;;;;5113196;28;20052;-68
2021/12/14 07:25:04;;;;;;;9.60;3.80;;;;;;;;;;5113606;28;20031;-67
2021/12/14 07:27:37;;;;;;;8.27;3.50;;;;;;;;;;5113492;28;20036;-69
2021/12/14 07:30:12;;;;;;;6.97;3.75;;;;;;;;;;5108362;28;20411;-69
2021/12/14 07:32:51;;;;;;;6.35;3.55;;;;;;;;;;5112196;28;20019;-69
2021/12/14 07:35:29;;;;;;;7.53;4.25;;;;;;;;;;5113837;28;20047;-69
2021/12/14 07:37:57;;;;;;;7.72;3.53;;;;;;;;;;5113663;28;20027;-69
2021/12/14 07:40:32;;;;;;;9.68;3.63;;;;;;;;;;5114252;28;20051;-68
2021/12/14 07:43:47;;;;;;;6.03;3.22;;;;;;;;;;5117318;28;20031;-68
2021/12/14 07:46:25;;;;;;;7.28;3.15;;;;;;;;;;5113538;28;20043;-67
2021/12/14 07:49:13;;;;;;;8.98;3.28;;;;;;;;;;5117659;28;20043;-68
2021/12/14 07:51:40;;;;;;;7.07;3.10;;;;;;;;;;5079059;28;20051;-68
2021/12/14 07:54:34;;;;;;;7.68;3.22;;;;;;;;;;5117331;28;20039;-68
2021/12/14 07:57:04;;;;;;;5.57;3.10;;;;;;;;;;5117147;28;20069;-68
2021/12/14 07:59:34;;;;;;;8.18;2.88;;;;;;;;;;5117110;28;20483;-68
2021/12/14 08:02:11;;;;;;;8.13;3.40;;;;;;;;;;5117166;28;20114;-68
2021/12/14 08:04:38;;;;;;;6.90;3.08;;;;;;;;;;5117369;28;20102;-68
2021/12/14 08:07:05;;;;;;;6.72;3.22;;;;;;;;;;5117182;27;20070;-68
2021/12/14 08:09:33;;;;;;;6.47;3.35;;;;;;;;;;5116989;28;20035;-68
2021/12/14 08:12:01;;;;;;;88.55;35.80;;;;;;;;;;5116922;28;20031;-67
2021/12/14 08:14:29;;;;;;;50.45;23.40;;;;;;;;;;5113192;27;20023;-68
2021/12/14 08:16:57;;;;;;;21.50;10.75;;;;;;;;;;5111874;27;20132;-68
2021/12/14 08:19:39;;;;;;;17.45;9.60;;;;;;;;;;5117735;27;20040;-68
2021/12/14 08:22:26;;;;;;;22.80;16.02;;;;;;;;;;5110917;28;20086;-68
2021/12/14 08:24:52;;;;;;;11.65;6.75;;;;;;;;;;5110931;28;20032;-68
2021/12/14 08:27:20;;;;;;;17.75;12.07;;;;;;;;;;5116276;28;20031;-68
2021/12/14 08:29:50;;;;;;;19.65;13.85;;;;;;;;;;5114816;28;20472;-68
2021/12/14 08:32:22;;;;;;;25.40;16.67;;;;;;;;;;5115471;28;20047;-68
2021/12/14 08:34:51;;;;;;;22.83;16.08;;;;;;;;;;5116137;27;20020;-67
2021/12/14 08:37:28;;;;;;;47.22;26.35;;;;;;;;;;5116222;28;20036;-68
2021/12/14 08:40:01;;;;;;;36.63;20.98;;;;;;;;;;5116259;28;20047;-68
2021/12/14 08:42:49;;;;;;;53.88;32.20;;;;;;;;;;5114063;28;20467;-67
2021/12/14 08:45:26;;;;;;;15.85;9.35;;;;;;;;;;5115793;28;20067;-67
2021/12/14 08:48:03;;;;;;;10.95;6.18;;;;;;;;;;5115871;28;20070;-68
2021/12/14 08:50:37;;;;;;;9.15;5.40;;;;;;;;;;5114269;28;20359;-68
2021/12/14 08:53:07;;;;;;;9.30;6.60;;;;;;;;;;5114493;28;20107;-68
2021/12/14 08:55:33;;;;;;;13.57;7.03;;;;;;;;;;5115709;28;20023;-69
2021/12/14 08:58:00;;;;;;;13.32;7.82;;;;;;;;;;5114820;28;20130;-68
2021/12/14 09:00:33;;;;;;;16.13;7.72;;;;;;;;;;5116237;28;20376;-67
2021/12/14 09:03:03;;;;;;;12.27;7.22;;;;;;;;;;5115803;28;20047;-68
2021/12/14 09:05:40;;;;;;;13.98;6.45;;;;;;;;;;5115863;28;20588;-68
2021/12/14 09:08:06;;;;;;;10.13;6.03;;;;;;;;;;5115692;28;20043;-68
2021/12/14 09:10:37;;;;;;;11.30;5.95;;;;;;;;;;5114607;28;20173;-67
2021/12/14 09:13:07;;;;;;;10.52;6.00;;;;;;;;;;5114710;28;20376;-69
2021/12/14 09:15:41;;;;;;;14.05;6.03;;;;;;;;;;5115679;28;20027;-68
2021/12/14 09:18:08;;;;;;;13.60;6.20;;;;;;;;;;5108085;28;20027;-68
2021/12/14 09:20:40;;;;;;;12.13;6.78;;;;;;;;;;5115423;28;20055;-68
2021/12/14 09:23:12;;;;;;;12.80;5.38;;;;;;;;;;5113424;28;20031;-68
2021/12/14 09:25:39;;;;;;;12.90;6.88;;;;;;;;;;5115541;28;20028;-68
2021/12/14 09:28:06;;;;;;;11.18;6.65;;;;;;;;;;5115487;28;20047;-68
2021/12/14 09:30:35;;;;;;;11.13;5.30;;;;;;;;;;5112536;28;20028;-68
2021/12/14 09:33:02;;;;;;;10.73;5.25;;;;;;;;;;5115371;28;20031;-68
2021/12/14 09:35:35;;;;;;;9.93;5.38;;;;;;;;;;5115169;28;20063;-68
2021/12/14 09:38:02;;;;;;;11.63;6.18;;;;;;;;;;5113186;28;20023;-68
2021/12/14 09:40:35;;;;;;;9.65;5.35;;;;;;;;;;5113402;28;20039;-68
2021/12/14 09:43:01;;;;;;;18.52;5.70;;;;;;;;;;5113361;28;20027;-68
2021/12/14 09:45:35;;;;;;;8.85;4.85;;;;;;;;;;5113146;28;20043;-69
2021/12/14 09:48:04;;;;;;;9.63;4.28;;;;;;;;;;5113063;28;20102;-69
2021/12/14 09:50:34;;;;;;;8.00;3.10;;;;;;;;;;5113166;28;20024;-68
2021/12/14 09:53:04;;;;;;;5.78;3.10;;;;;;;;;;5108120;28;20027;-68
2021/12/14 09:55:36;;;;;;;8.93;3.40;;;;;;;;;;5111378;28;20476;-68
2021/12/14 09:58:07;;;;;;;8.98;3.03;;;;;;;;;;5115391;27;20039;-68
2021/12/14 10:00:35;;;;;;;6.85;1.83;;;;;;;;;;5114369;28;20089;-68
2021/12/14 10:03:03;;;;;;;7.35;2.22;;;;;;;;;;5106837;28;20472;-68
2021/12/14 10:05:39;;;;;;;5.90;2.15;;;;;;;;;;5114304;28;20465;-68
2021/12/14 10:08:15;;;;;;;4.60;1.63;;;;;;;;;;5112771;28;20039;-68
2021/12/14 10:10:44;;;;;;;7.55;1.80;;;;;;;;;;5112102;28;20444;-68
2021/12/14 10:13:10;;;;;;;8.82;2.25;;;;;;;;;;5113773;28;20031;-68
2021/12/14 10:15:51;;;;;;;4.55;1.88;;;;;;;;;;5114256;28;20027;-68
2021/12/14 10:18:40;;;;;;;7.18;2.30;;;;;;;;;;5107376;28;20027;-68
2021/12/14 10:21:20;;;;;;;13.13;3.25;;;;;;;;;;5113800;28;20043;-68
2021/12/14 10:23:48;;;;;;;10.25;3.20;;;;;;;;;;5113725;28;20035;-68
2021/12/14 10:26:15;;;;;;;11.55;3.80;;;;;;;;;;5113782;28;20047;-69
2021/12/14 10:28:45;;;;;;;9.80;3.55;;;;;;;;;;5112064;28;20368;-68
2021/12/14 10:31:16;;;;;;;;;;;;;;;;;;5113541;28;20027;-68
2021/12/14 10:33:43;;;;;;;8.82;2.92;;;;;;;;;;5113783;28;20402;-68
2021/12/14 10:36:26;;;;;;;14.32;5.32;;;;;;;;;;5113613;28;20397;-67
2021/12/14 10:44:12;;;;;;;6.78;3.08;;;;;;;;;;5104221;28;20087;-68
2021/12/14 10:46:45;;;;;;;10.05;3.30;;;;;;;;;;5111878;28;20031;-68
2021/12/14 10:49:13;;;;;;;12.07;4.40;;;;;;;;;;5111872;28;20468;-67
2021/12/14 10:51:42;;;;;;;7.18;3.35;;;;;;;;;;5112081;28;20035;-68
2021/12/14 10:54:13;;;;;;;10.20;4.43;;;;;;;;;;5111647;28;20035;-68
2021/12/14 10:56:45;;;;;;;9.05;4.45;;;;;;;;;;5112158;28;20510;-68
2021/12/14 10:59:15;;;;;;;4.47;2.53;;;;;;;;;;5112917;28;20519;-68
2021/12/14 11:01:48;;;;;;;4.47;2.33;;;;;;;;;;5112825;28;20392;-67
2021/12/14 11:04:15;;;;;;;8.45;2.10;;;;;;;;;;5113524;28;20540;-68
2021/12/14 11:06:45;;;;;;;6.88;2.40;;;;;;;;;;5113976;28;20047;-69
2021/12/14 11:09:42;;;;;;;6.38;2.55;;;;;;;;;;5113598;28;20035;-68
2021/12/14 11:12:18;;;;;;;7.20;3.00;;;;;;;;;;5113379;28;20193;-68
2021/12/14 11:14:44;;;;;;;5.55;2.63;;;;;;;;;;5113773;28;20024;-68
2021/12/14 11:18:14;;;;;;;6.13;2.97;;;;;;;;;;5117456;28;20475;-68
2021/12/14 11:20:16;;;;;;;8.65;2.90;;;;;;;;;;5108739;28;20055;-68
2021/12/14 11:22:51;;;;;;;8.43;3.53;;;;;;;;;;5108027;28;20040;-68
2021/12/14 11:25:20;;;;;;;7.05;2.65;;;;;;;;;;5106623;28;20035;-68
2021/12/14 11:28:06;;;;;;;14.97;3.50;;;;;;;;;;5113206;28;20164;-68
2021/12/14 11:30:36;;;;;;;10.52;6.18;;;;;;;;;;5116471;28;20057;-67
2021/12/14 11:33:12;;;;;;;7.88;3.25;;;;;;;;;;5117768;28;20024;-68
2021/12/14 11:35:58;;;;;;;8.57;2.95;;;;;;;;;;5117505;28;20027;-68
2021/12/14 11:38:42;;;;;;;7.35;2.47;;;;;;;;;;5116598;28;20189;-68
2021/12/14 11:41:26;;;;;;;8.15;2.22;;;;;;;;;;5117552;28;20039;-68
2021/12/14 11:44:15;;;;;;;5.38;2.40;;;;;;;;;;5116961;27;20027;-69
2021/12/14 11:47:06;;;;;;;7.25;2.47;;;;;;;;;;5117017;28;20028;-68
2021/12/14 11:49:43;;;;;;;;;;;;;;;;;;5117992;28;20035;-68
2021/12/14 11:52:10;;;;;;;6.20;1.80;;;;;;;;;;5117471;28;19911;-69
2021/12/14 11:54:47;;;;;;;4.75;2.35;;;;;;;;;;5117371;27;20102;-68
2021/12/14 11:57:15;;;;;;;6.60;2.40;;;;;;;;;;5116872;28;20084;-68
2021/12/14 11:59:41;;;;;;;6.10;2.85;;;;;;;;;;5117091;27;20031;-68
2021/12/14 12:02:07;;;;;;;9.32;3.78;;;;;;;;;;5116948;28;20047;-68
2021/12/14 12:04:35;;;;;;;7.20;2.20;;;;;;;;;;5116625;28;20452;-68
2021/12/14 12:09:39;;;;;;;6.63;2.08;;;;;;;;;;5117423;28;20042;-68
2021/12/14 12:12:07;;;;;;;4.88;2.20;;;;;;;;;;5116754;28;20061;-68
2021/12/14 12:14:52;;;;;;;6.55;2.08;;;;;;;;;;5116858;28;20027;-67
2021/12/14 12:17:38;;;;;;;5.60;1.70;;;;;;;;;;5116731;28;20034;-68
2021/12/14 12:20:25;;;;;;;5.75;1.90;;;;;;;;;;5116836;28;20038;-68
2021/12/14 12:23:03;;;;;;;6.30;1.90;;;;;;;;;;5116393;28;20125;-68
2021/12/14 12:25:35;;;;;;;5.85;1.92;;;;;;;;;;5116383;28;20032;-68
2021/12/14 12:28:02;;;;;;;5.38;1.98;;;;;;;;;;5116344;28;20051;-68
2021/12/14 12:30:43;;;;;;;4.30;1.92;;;;;;;;;;5106376;28;20032;-67
2021/12/14 12:33:19;;;;;;;4.70;1.70;;;;;;;;;;5116366;28;20024;-67
2021/12/14 12:36:12;;;;;;;5.32;1.67;;;;;;;;;;5116590;28;20019;-67
2021/12/14 12:39:00;;;;;;;4.28;2.00;;;;;;;;;;5116318;28;20376;-67
2021/12/14 12:41:32;;;;;;;7.28;2.40;;;;;;;;;;5116251;28;20032;-67
2021/12/14 12:44:16;;;;;;;7.38;1.80;;;;;;;;;;5116185;28;20361;-67
2021/12/14 12:46:48;;;;;;;4.22;1.73;;;;;;;;;;5116187;28;20464;-68
2021/12/14 12:49:25;;;;;;;3.55;1.40;;;;;;;;;;5116228;28;20027;-68
2021/12/14 12:52:19;;;;;;;6.15;1.83;;;;;;;;;;5116207;28;20388;-67
2021/12/14 12:54:56;;;;;;;5.85;1.85;;;;;;;;;;5116022;28;20429;-68
2021/12/14 12:57:33;;;;;;;4.47;1.50;;;;;;;;;;5108049;27;20032;-68
2021/12/14 13:00:24;;;;;;;4.60;1.58;;;;;;;;;;5116025;28;20037;-68
2021/12/14 13:03:12;;;;;;;5.45;1.90;;;;;;;;;;5115947;28;20027;-68
2021/12/14 13:05:46;;;;;;;5.53;1.70;;;;;;;;;;5115708;28;20460;-68
2021/12/14 13:08:23;;;;;;;2.65;1.30;;;;;;;;;;5115816;27;20106;-68
2021/12/14 13:10:57;;;;;;;5.40;1.75;;;;;;;;;;5115882;28;20539;-68
2021/12/14 13:13:38;;;;;;;7.28;1.90;;;;;;;;;;5115497;27;20024;-68
2021/12/14 13:16:10;;;;;;;12.05;2.03;;;;;;;;;;5115754;27;20471;-68
2021/12/14 13:18:48;;;;;;;7.10;1.77;;;;;;;;;;5115531;28;20024;-68
2021/12/14 13:21:39;;;;;;;4.70;1.67;;;;;;;;;;5115722;28;20134;-68
2021/12/14 13:24:05;;;;;;;;;;;;;;;;;;5115588;28;20458;-68
2021/12/14 13:26:38;;;;;;;4.15;1.77;;;;;;;;;;5115480;28;19911;-68
2021/12/14 13:29:14;;;;;;;3.78;1.58;;;;;;;;;;5114959;28;20027;-67
2021/12/14 13:32:06;;;;;;;7.22;1.77;;;;;;;;;;5114230;28;20110;-68
2021/12/14 13:34:41;;;;;;;7.90;2.03;;;;;;;;;;5115298;28;20054;-67
2021/12/14 13:37:09;;;;;;;5.97;1.65;;;;;;;;;;5114989;28;20119;-67
2021/12/14 13:39:37;;;;;;;11.07;1.88;;;;;;;;;;5114306;27;20019;-68
2021/12/14 13:42:12;;;;;;;4.28;1.70;;;;;;;;;;5113142;28;20035;-68
2021/12/14 13:44:43;;;;;;;7.45;1.95;;;;;;;;;;5114101;28;20023;-69
2021/12/14 13:47:13;;;;;;;6.03;2.00;;;;;;;;;;5113578;28;20529;-69
2021/12/14 13:49:40;;;;;;;8.40;1.60;;;;;;;;;;5114686;28;20028;-69
2021/12/14 13:52:09;;;;;;;5.30;1.60;;;;;;;;;;5114300;28;20117;-69
2021/12/14 13:55:11;;;;;;;6.10;1.67;;;;;;;;;;5114613;28;20366;-69
2021/12/14 13:57:43;;;;;;;7.15;1.85;;;;;;;;;;5109953;28;20031;-69
2021/12/14 14:00:13;;;;;;;7.60;1.77;;;;;;;;;;5112131;28;20042;-68
2021/12/14 14:02:39;;;;;;;4.47;1.75;;;;;;;;;;5108573;28;20365;-67
2021/12/14 14:05:07;;;;;;;5.97;2.05;;;;;;;;;;5112427;28;20039;-66
2021/12/14 14:07:32;;;;;;;4.45;1.75;;;;;;;;;;5112806;27;20032;-66
2021/12/14 14:09:59;;;;;;;5.28;1.77;;;;;;;;;;5112598;28;20027;-66
2021/12/14 14:12:26;;;;;;;7.40;2.15;;;;;;;;;;5112851;28;20028;-67
2021/12/14 14:14:53;;;;;;;7.57;2.10;;;;;;;;;;5112846;28;20035;-68
2021/12/14 14:17:29;;;;;;;3.67;1.70;;;;;;;;;;5112621;28;20055;-66
2021/12/14 14:20:04;;;;;;;6.00;2.08;;;;;;;;;;5114086;28;20038;-69
2021/12/14 14:22:36;;;;;;;3.13;1.80;;;;;;;;;;5114220;27;20093;-67
2021/12/14 14:25:13;;;;;;;4.85;2.10;;;;;;;;;;5114061;28;20389;-67
2021/12/14 14:27:39;;;;;;;4.28;1.85;;;;;;;;;;5114256;28;20031;-67
2021/12/14 14:30:20;;;;;;;5.60;2.67;;;;;;;;;;5111253;28;20042;-67
2021/12/14 14:33:25;;;;;;;6.55;3.38;;;;;;;;;;5114370;28;20042;-67
2021/12/14 14:36:03;;;;;;;6.70;2.03;;;;;;;;;;5113932;28;20464;-68
2021/12/14 14:38:35;;;;;;;6.22;2.67;;;;;;;;;;5113934;28;20024;-67
2021/12/14 14:41:28;;;;;;;4.45;2.03;;;;;;;;;;5114022;27;20027;-67
2021/12/14 14:43:55;;;;;;;7.30;2.00;;;;;;;;;;5113811;28;20034;-67
2021/12/14 14:47:03;;;;;;;5.97;2.28;;;;;;;;;;5114102;28;20031;-67
2021/12/14 14:49:37;;;;;;;6.80;3.00;;;;;;;;;;5085042;28;20556;-68
2021/12/14 14:52:14;;;;;;;6.28;3.88;;;;;;;;;;5113934;28;20035;-68
2021/12/14 14:54:48;;;;;;;7.10;3.33;;;;;;;;;;5113833;28;20058;-68
2021/12/14 14:57:13;;;;;;;9.57;2.90;;;;;;;;;;5114025;28;20112;-67
2021/12/14 14:59:42;;;;;;;5.80;2.58;;;;;;;;;;5113936;28;20112;-67
2021/12/14 15:02:09;;;;;;;5.20;2.65;;;;;;;;;;5106229;28;20039;-67
2021/12/14 15:04:59;;;;;;;5.28;2.55;;;;;;;;;;5094210;28;20062;-69
2021/12/14 15:07:54;;;;;;;7.05;2.55;;;;;;;;;;5105499;28;20210;-67
2021/12/14 15:10:30;;;;;;;4.55;1.95;;;;;;;;;;5111712;28;20039;-67
2021/12/14 15:13:22;;;;;;;5.63;2.42;;;;;;;;;;5111629;28;20035;-67
2021/12/14 15:16:05;;;;;;;7.40;2.30;;;;;;;;;;5111268;28;20553;-67
2021/12/14 15:18:56;;;;;;;4.55;2.10;;;;;;;;;;5111645;28;20043;-67
2021/12/14 15:21:27;;;;;;;5.53;2.22;;;;;;;;;;5111579;28;20101;-67
2021/12/14 15:23:54;;;;;;;7.40;2.50;;;;;;;;;;5113089;28;20066;-67
2021/12/14 15:26:21;;;;;;;7.80;2.20;;;;;;;;;;5113511;28;20028;-67
2021/12/14 15:29:27;;;;;;;6.40;2.60;;;;;;;;;;5113355;28;20059;-66
2021/12/14 15:32:14;;;;;;;6.90;2.30;;;;;;;;;;5112669;28;20039;-67
2021/12/14 15:35:06;;;;;;;11.25;2.35;;;;;;;;;;5112242;28;20046;-67
2021/12/14 15:37:44;;;;;;;6.22;2.25;;;;;;;;;;5113265;28;20326;-67
2021/12/14 15:40:16;;;;;;;5.00;2.40;;;;;;;;;;5113352;28;20487;-67
2021/12/14 15:43:10;;;;;;;8.00;2.50;;;;;;;;;;5113269;28;20376;-66
2021/12/14 15:45:46;;;;;;;9.93;2.75;;;;;;;;;;5113254;28;20024;-67